createdAt,value
2023-03-08T00:02:19.151Z,100052.25
2023-03-08T00:04:46.630Z,100053.09
2023-03-08T00:07:14.099Z,100051.28
2023-03-08T00:09:41.549Z,100048.75
2023-03-08T00:12:10.570Z,100052.25
2023-03-08T00:14:38.342Z,100053.00
2023-03-08T00:17:05.780Z,100048.75
2023-03-08T00:19:33.379Z,100048.03
2023-03-08T00:22:00.775Z,100044.56
2023-03-08T00:24:28.209Z,100039.34
2023-03-08T00:26:55.596Z,100051.41
2023-03-08T00:29:23.197Z,100048.69
2023-03-08T00:31:51.173Z,100041.94
2023-03-08T00:34:18.779Z,100040.25
2023-03-08T00:36:46.264Z,100037.59
2023-03-08T00:39:14.606Z,100040.09
2023-03-08T00:41:42.074Z,100036.78
2023-03-08T00:44:09.835Z,100037.56
2023-03-08T00:46:37.244Z,100034.09
2023-03-08T00:49:04.942Z,100042.75
2023-03-08T00:51:32.396Z,100034.94
2023-03-08T00:53:59.830Z,100034.94
2023-03-08T00:56:27.672Z,100031.50
2023-03-08T00:58:55.113Z,100025.63
2023-03-08T01:01:22.633Z,100027.31
2023-03-08T01:03:50.226Z,100015.88
2023-03-08T01:06:17.636Z,100009.88
2023-03-08T01:08:45.685Z,100010.81
2023-03-08T01:11:17.695Z,100004.56
2023-03-08T01:13:45.169Z,99995.28
2023-03-08T01:16:16.984Z,100003.00
2023-03-08T01:18:44.467Z,100000.97
2023-03-08T01:21:12.373Z,100004.31
2023-03-08T01:23:41.623Z,99995.09
2023-03-08T01:26:12.975Z,99991.69
2023-03-08T01:28:40.663Z,99989.06
2023-03-08T01:31:15.742Z,99988.94
2023-03-08T01:33:43.807Z,99982.88
2023-03-08T01:36:12.303Z,99980.31
2023-03-08T01:38:40.256Z,99976.84
2023-03-08T01:41:08.389Z,99973.63
2023-03-08T01:43:37.156Z,99973.72
2023-03-08T01:46:11.664Z,99976.22
2023-03-08T01:48:41.809Z,99965.16
2023-03-08T01:51:10.329Z,99953.25
2023-03-08T01:53:38.522Z,99947.34
2023-03-08T01:56:08.503Z,99939.47
2023-03-08T01:58:36.161Z,99938.53
2023-03-08T02:01:03.647Z,99941.94
2023-03-08T02:03:31.232Z,99937.66
2023-03-08T02:05:58.959Z,99935.13
2023-03-08T02:08:26.523Z,99933.53
2023-03-08T02:10:54.110Z,99924.13
2023-03-08T02:13:21.812Z,99924.13
2023-03-08T02:15:50.292Z,99919.81
2023-03-08T02:18:17.724Z,99919.00
2023-03-08T02:20:45.213Z,99922.34
2023-03-08T02:23:12.582Z,99907.84
2023-03-08T02:25:40.236Z,99908.63
2023-03-08T02:28:08.056Z,99906.81
2023-03-08T02:30:37.091Z,99901.63
2023-03-08T02:33:05.089Z,99904.25
2023-03-08T02:35:32.663Z,99892.38
2023-03-08T02:38:00.406Z,99889.72
2023-03-08T02:40:27.926Z,99892.41
2023-03-08T02:42:56.078Z,99906.19
2023-03-08T02:45:24.418Z,99900.97
2023-03-08T02:47:52.074Z,99900.22
2023-03-08T02:50:19.463Z,99890.00
2023-03-08T02:52:46.892Z,99889.22
2023-03-08T02:55:14.372Z,99886.56
2023-03-08T02:57:41.828Z,99878.91
2023-03-08T03:00:09.610Z,99886.44
2023-03-08T03:02:37.507Z,99877.97
2023-03-08T03:05:10.797Z,99877.94
2023-03-08T03:07:38.782Z,99884.88
2023-03-08T03:10:06.543Z,99883.22
2023-03-08T03:12:33.992Z,99897.03
2023-03-08T03:15:05.967Z,99883.25
2023-03-08T03:17:33.635Z,99885.84
2023-03-08T03:20:01.125Z,99873.78
2023-03-08T03:22:28.836Z,99885.88
2023-03-08T03:24:56.240Z,99872.25
2023-03-08T03:27:23.740Z,99867.13
2023-03-08T03:29:51.234Z,99871.47
2023-03-08T03:32:18.744Z,99857.78
2023-03-08T03:34:46.186Z,99847.34
2023-03-08T03:37:13.639Z,99854.16
2023-03-08T03:39:41.190Z,99856.63
2023-03-08T03:42:08.988Z,99847.25
2023-03-08T03:44:36.520Z,99840.31
2023-03-08T03:47:03.931Z,99831.78
2023-03-08T03:49:31.380Z,99835.06
2023-03-08T03:51:58.843Z,99835.94
2023-03-08T03:54:26.308Z,99838.38
2023-03-08T03:56:55.486Z,99843.31
2023-03-08T03:59:24.379Z,99828.38
2023-03-08T04:01:53.057Z,99833.88
2023-03-08T04:04:20.645Z,99821.84
2023-03-08T04:06:48.105Z,99842.78
2023-03-08T04:09:17.646Z,99839.31
2023-03-08T04:11:45.069Z,99850.25
2023-03-08T04:14:12.549Z,99839.94
2023-03-08T04:16:41.067Z,99827.94
2023-03-08T04:19:10.987Z,99816.91
2023-03-08T04:21:38.593Z,99814.44
2023-03-08T04:24:06.302Z,99827.00
2023-03-08T04:26:33.721Z,99815.53
2023-03-08T04:29:05.564Z,99819.16
2023-03-08T04:31:34.830Z,99809.66
2023-03-08T04:34:03.176Z,99808.22
2023-03-08T04:36:30.695Z,99796.09
2023-03-08T04:38:58.183Z,99796.47
2023-03-08T04:41:25.626Z,99790.09
2023-03-08T04:43:54.127Z,99786.47
2023-03-08T04:46:22.687Z,99771.19
2023-03-08T04:48:52.818Z,99774.16
2023-03-08T04:51:20.772Z,99778.34
2023-03-08T04:53:48.364Z,99769.91
2023-03-08T04:56:16.739Z,99762.88
2023-03-08T04:58:44.324Z,99761.13
2023-03-08T05:01:13.063Z,99751.81
2023-03-08T05:03:40.733Z,99755.84
2023-03-08T05:06:08.829Z,99759.13
2023-03-08T05:08:36.396Z,99753.84
2023-03-08T05:11:04.670Z,99753.38
2023-03-08T05:13:33.507Z,99740.22
2023-03-08T05:16:01.147Z,99744.75
2023-03-08T05:18:28.548Z,99736.84
2023-03-08T05:20:59.816Z,99716.25
2023-03-08T05:23:28.670Z,99711.06
2023-03-08T05:25:57.290Z,99715.97
2023-03-08T05:28:25.627Z,99707.53
2023-03-08T05:31:13.405Z,99711.63
2023-03-08T05:33:41.467Z,99707.28
2023-03-08T05:36:09.180Z,99692.25
2023-03-08T05:38:36.647Z,99692.25
2023-03-08T05:41:05.602Z,99674.25
2023-03-08T05:43:33.140Z,99674.22
2023-03-08T05:46:02.394Z,99661.69
2023-03-08T05:48:30.182Z,99656.38
2023-03-08T05:50:57.665Z,99650.38
2023-03-08T05:53:25.431Z,99640.94
2023-03-08T05:55:52.829Z,99648.41
2023-03-08T05:58:20.256Z,99639.16
2023-03-08T06:00:47.622Z,99640.78
2023-03-08T06:03:15.188Z,99644.25
2023-03-08T06:05:42.705Z,99637.94
2023-03-08T06:08:10.170Z,99644.19
2023-03-08T06:10:37.631Z,99636.34
2023-03-08T06:13:05.256Z,99633.09
2023-03-08T06:15:32.640Z,99623.72
2023-03-08T06:18:00.094Z,99628.72
2023-03-08T06:20:27.581Z,99632.22
2023-03-08T06:22:54.957Z,99622.00
2023-03-08T06:25:22.355Z,99626.28
2023-03-08T06:27:49.751Z,99617.81
2023-03-08T06:30:17.377Z,99630.84
2023-03-08T06:32:44.867Z,99612.91
2023-03-08T06:35:12.297Z,99622.28
2023-03-08T06:37:39.801Z,99626.63
2023-03-08T06:40:09.217Z,99629.19
2023-03-08T06:42:41.494Z,99621.25
2023-03-08T06:45:09.948Z,99617.03
2023-03-08T06:47:37.624Z,99622.22
2023-03-08T06:50:05.194Z,99622.28
2023-03-08T06:52:37.569Z,99622.31
2023-03-08T06:55:05.665Z,99616.03
2023-03-08T06:57:33.172Z,99622.22
2023-03-08T07:00:00.680Z,99623.16
2023-03-08T07:02:28.347Z,99625.69
2023-03-08T07:04:55.825Z,99621.34
2023-03-08T07:07:23.245Z,99620.69
2023-03-08T07:09:50.759Z,99622.44
2023-03-08T07:12:18.229Z,99615.63
2023-03-08T07:14:45.697Z,99614.78
2023-03-08T07:17:13.161Z,99598.53
2023-03-08T07:19:40.741Z,99600.19
2023-03-08T07:22:08.208Z,99614.78
2023-03-08T07:24:35.611Z,99605.34
2023-03-08T07:27:02.998Z,99605.38
2023-03-08T07:29:30.601Z,99612.19
2023-03-08T07:31:58.096Z,99604.31
2023-03-08T07:34:25.556Z,99605.16
2023-03-08T07:36:53.067Z,99592.50
2023-03-08T07:39:20.733Z,99594.88
2023-03-08T07:41:48.153Z,99595.00
2023-03-08T07:44:15.630Z,99584.81
2023-03-08T07:46:43.212Z,99588.25
2023-03-08T07:49:11.697Z,99575.34
2023-03-08T07:51:39.180Z,99579.63
2023-03-08T07:54:07.703Z,99577.06
2023-03-08T07:56:35.219Z,99571.84
2023-03-08T07:59:02.624Z,99575.13
2023-03-08T08:01:30.107Z,99567.34
2023-03-08T08:03:57.593Z,99565.84
2023-03-08T08:06:25.039Z,99560.72
2023-03-08T08:08:52.501Z,99559.84
2023-03-08T08:11:20.830Z,99559.03
2023-03-08T08:13:48.439Z,99550.47
2023-03-08T08:16:16.993Z,99548.75
2023-03-08T08:18:44.725Z,99548.78
2023-03-08T08:21:13.338Z,99529.03
2023-03-08T08:23:41.642Z,99531.59
2023-03-08T08:26:10.539Z,99540.16
2023-03-08T08:28:39.405Z,99534.09
2023-03-08T08:31:08.386Z,99532.47
2023-03-08T08:33:36.354Z,99534.16
2023-03-08T08:36:05.319Z,99532.44
2023-03-08T08:38:32.822Z,99535.91
2023-03-08T08:41:01.440Z,99544.44
2023-03-08T08:43:29.399Z,99540.19
2023-03-08T08:45:58.103Z,99539.31
2023-03-08T08:48:25.889Z,99538.47
2023-03-08T08:50:54.063Z,99539.31
2023-03-08T08:53:21.995Z,99541.03
2023-03-08T08:55:49.460Z,99534.16
2023-03-08T08:58:17.042Z,99541.91
2023-03-08T09:00:44.838Z,99541.00
2023-03-08T09:03:12.349Z,99538.47
2023-03-08T09:05:41.075Z,99531.56
2023-03-08T09:08:09.052Z,99513.56
2023-03-08T09:10:37.728Z,99531.56
2023-03-08T09:13:05.825Z,99535.00
2023-03-08T09:15:34.025Z,99540.13
2023-03-08T09:18:01.603Z,99531.56
2023-03-08T09:20:29.079Z,99522.97
2023-03-08T09:22:56.597Z,99524.66
2023-03-08T09:25:24.193Z,99455.16
2023-03-08T09:27:51.978Z,99500.66
2023-03-08T09:30:19.776Z,99485.16
2023-03-08T09:32:47.334Z,99485.09
2023-03-08T09:35:16.149Z,99482.53
2023-03-08T09:37:43.645Z,99475.63
2023-03-08T09:40:21.940Z,99474.06
2023-03-08T09:42:49.352Z,99469.69
2023-03-08T09:45:28.239Z,99472.78
2023-03-08T09:48:00.185Z,99471.56
2023-03-08T09:50:31.375Z,99461.31
2023-03-08T09:53:02.410Z,99456.97
2023-03-08T09:55:31.155Z,99452.69
2023-03-08T09:58:14.756Z,99464.31
2023-03-08T10:00:42.199Z,99471.16
2023-03-08T10:03:36.085Z,99493.34
2023-03-08T10:06:15.972Z,99476.31
2023-03-08T10:08:49.811Z,99485.59
2023-03-08T10:11:30.606Z,99482.63
2023-03-08T10:13:59.457Z,99461.22
2023-03-08T10:16:30.970Z,99467.09
2023-03-08T10:19:01.294Z,99465.41
2023-03-08T10:21:30.783Z,99468.94
2023-03-08T10:24:13.073Z,99473.16
2023-03-08T10:26:41.452Z,99464.50
2023-03-08T10:29:10.630Z,99455.13
2023-03-08T10:31:38.064Z,99452.66
2023-03-08T10:34:13.519Z,99444.91
2023-03-08T10:36:51.619Z,99428.66
2023-03-08T10:39:19.514Z,99420.97
2023-03-08T10:41:58.472Z,99410.59
2023-03-08T10:44:49.354Z,99406.41
2023-03-08T10:47:19.845Z,99405.50
2023-03-08T10:49:47.703Z,99397.81
2023-03-08T10:52:41.487Z,99407.16
2023-03-08T10:55:19.563Z,99418.41
2023-03-08T10:58:13.083Z,99422.66
2023-03-08T11:00:42.664Z,99425.28
2023-03-08T11:03:16.220Z,99413.25
2023-03-08T11:05:57.421Z,99426.91
2023-03-08T11:08:26.809Z,99421.47
2023-03-08T11:11:20.731Z,99421.50
2023-03-08T11:13:49.044Z,99424.94
2023-03-08T11:16:35.346Z,99428.41
2023-03-08T11:19:03.220Z,99439.66
2023-03-08T11:21:33.479Z,99434.59
2023-03-08T11:24:09.982Z,99424.41
2023-03-08T11:26:57.722Z,99425.25
2023-03-08T11:29:32.854Z,99407.97
2023-03-08T11:32:00.311Z,99405.41
2023-03-08T11:34:46.634Z,99414.78
2023-03-08T11:37:14.092Z,99412.78
2023-03-08T11:39:41.465Z,99416.41
2023-03-08T11:42:18.558Z,99409.56
2023-03-08T11:44:45.961Z,99401.09
2023-03-08T11:47:29.187Z,99401.66
2023-03-08T11:50:05.742Z,99379.59
2023-03-08T11:52:38.445Z,99370.09
2023-03-08T11:55:11.998Z,99370.13
2023-03-08T11:57:42.117Z,99378.47
2023-03-08T12:00:23.193Z,99372.53
2023-03-08T12:02:51.160Z,99371.63
2023-03-08T12:05:21.572Z,99370.47
2023-03-08T12:07:55.569Z,99355.09
2023-03-08T12:10:25.350Z,99360.13
2023-03-08T12:13:01.076Z,99351.56
2023-03-08T12:15:33.536Z,99353.22
2023-03-08T12:18:08.817Z,99351.56
2023-03-08T12:20:39.741Z,99354.94
2023-03-08T12:23:16.293Z,99356.63
2023-03-08T12:25:45.467Z,99360.13
2023-03-08T12:28:35.650Z,99361.34
2023-03-08T12:31:11.031Z,99373.84
2023-03-08T12:33:45.960Z,99376.88
2023-03-08T12:36:13.664Z,99386.94
2023-03-08T12:38:46.690Z,99387.09
2023-03-08T12:41:28.404Z,99379.34
2023-03-08T12:44:01.749Z,99373.03
2023-03-08T12:46:29.159Z,99361.84
2023-03-08T12:48:57.383Z,99357.03
2023-03-08T12:51:31.718Z,99351.19
2023-03-08T12:54:04.057Z,99345.03
2023-03-08T12:56:37.354Z,99339.63
2023-03-08T12:59:24.725Z,99336.16
2023-03-08T13:01:58.056Z,99348.09
2023-03-08T13:04:42.253Z,99350.31
2023-03-08T13:07:10.117Z,99356.09
2023-03-08T13:09:44.755Z,99358.66
2023-03-08T13:12:24.101Z,99367.28
2023-03-08T13:15:00.694Z,99367.88
2023-03-08T13:17:37.502Z,99369.06
2023-03-08T13:20:12.648Z,99363.75
2023-03-08T13:22:46.241Z,99362.56
2023-03-08T13:25:16.455Z,99361.66
2023-03-08T13:27:50.862Z,99355.75
2023-03-08T13:30:24.338Z,99348.94
2023-03-08T13:32:52.171Z,99351.28
2023-03-08T13:35:20.141Z,99341.19
2023-03-08T13:37:55.166Z,99341.84
2023-03-08T13:40:23.221Z,99340.59
2023-03-08T13:42:57.934Z,99347.13
2023-03-08T13:45:25.905Z,99344.19
2023-03-08T13:47:54.517Z,99338.84
2023-03-08T13:50:26.205Z,99343.97
2023-03-08T13:52:54.276Z,99335.91
2023-03-08T13:55:36.650Z,99332.44
2023-03-08T13:58:04.350Z,99331.16
2023-03-08T14:00:33.948Z,99327.84
2023-03-08T14:03:02.195Z,99325.41
2023-03-08T14:05:31.698Z,99336.94
2023-03-08T14:07:59.106Z,99319.41
2023-03-08T14:10:32.745Z,99323.78
2023-03-08T14:13:00.222Z,99326.69
2023-03-08T14:15:27.750Z,99326.34
2023-03-08T14:17:55.165Z,99328.91
2023-03-08T14:20:24.077Z,99315.06
2023-03-08T14:22:53.338Z,99320.09
2023-03-08T14:25:31.899Z,99322.69
2023-03-08T14:27:59.578Z,99337.38
2023-03-08T14:30:28.261Z,99328.81
2023-03-08T14:33:16.019Z,99337.50
2023-03-08T14:35:46.249Z,99334.19
2023-03-08T14:38:25.236Z,99332.97
2023-03-08T14:40:53.079Z,99334.19
2023-03-08T14:43:22.044Z,99324.78
2023-03-08T14:45:55.665Z,99328.34
2023-03-08T14:48:29.853Z,99320.59
2023-03-08T14:51:04.567Z,99328.06
2023-03-08T14:53:42.382Z,99324.63
2023-03-08T14:56:12.833Z,99328.22
2023-03-08T14:58:42.281Z,99333.34
2023-03-08T15:01:09.719Z,99332.38
2023-03-08T15:03:37.163Z,99327.38
2023-03-08T15:06:16.870Z,99327.44
2023-03-08T15:08:44.421Z,99321.22
2023-03-08T15:11:11.951Z,99328.16
2023-03-08T15:13:39.382Z,99324.00
2023-03-08T15:16:13.249Z,99325.66
2023-03-08T15:18:41.716Z,99319.59
2023-03-08T15:21:11.903Z,99331.63
2023-03-08T15:23:39.386Z,99328.91
2023-03-08T15:26:07.532Z,99322.13
2023-03-08T15:28:34.962Z,99324.16
2023-03-08T15:31:02.419Z,99314.66
2023-03-08T15:33:29.873Z,99318.06
2023-03-08T15:35:59.151Z,99312.75
2023-03-08T15:38:26.574Z,99308.31
2023-03-08T15:40:54.009Z,99303.28
2023-03-08T15:43:21.516Z,99301.84
2023-03-08T15:45:48.983Z,99304.47
2023-03-08T15:48:18.234Z,99297.59
2023-03-08T15:50:45.864Z,99307.03
2023-03-08T15:53:20.570Z,99312.16
2023-03-08T15:55:56.925Z,99308.56
2023-03-08T15:58:24.369Z,99317.03
2023-03-08T16:00:52.165Z,99315.34
2023-03-08T16:03:25.904Z,99320.56
2023-03-08T16:05:53.512Z,99314.47
2023-03-08T16:08:25.114Z,99293.81
2023-03-08T16:10:52.983Z,99324.00
2023-03-08T16:13:22.067Z,99313.50
2023-03-08T16:15:49.904Z,99313.47
2023-03-08T16:18:17.310Z,99306.59
2023-03-08T16:20:46.228Z,99303.22
2023-03-08T16:23:13.761Z,99310.38
2023-03-08T16:25:43.164Z,99310.25
2023-03-08T16:28:11.043Z,99313.66
2023-03-08T16:30:39.204Z,99315.34
2023-03-08T16:33:06.618Z,99298.19
2023-03-08T16:35:34.110Z,99291.53
2023-03-08T16:38:01.563Z,99295.88
2023-03-08T16:40:31.171Z,99285.59
2023-03-08T16:42:58.890Z,99288.94
2023-03-08T16:45:26.334Z,99296.66
2023-03-08T16:47:53.831Z,99283.75
2023-03-08T16:50:21.254Z,99284.47
2023-03-08T16:52:48.755Z,99289.53
2023-03-08T16:55:16.220Z,99284.47
2023-03-08T16:57:43.748Z,99285.44
2023-03-08T17:00:12.781Z,99291.22
2023-03-08T17:02:40.492Z,99299.03
2023-03-08T17:05:10.720Z,99291.41
2023-03-08T17:07:38.873Z,99288.84
2023-03-08T17:10:06.715Z,99292.09
2023-03-08T17:12:34.099Z,99304.97
2023-03-08T17:15:04.627Z,99304.44
2023-03-08T17:17:32.022Z,99310.28
2023-03-08T17:20:00.645Z,99313.88
2023-03-08T17:22:28.178Z,99301.03
2023-03-08T17:24:55.690Z,99301.88
2023-03-08T17:27:24.212Z,99303.59
2023-03-08T17:29:51.599Z,99300.16
2023-03-08T17:32:19.457Z,99295.03
2023-03-08T17:34:46.882Z,99298.47
2023-03-08T17:37:15.684Z,99295.03
2023-03-08T17:39:43.150Z,99290.75
2023-03-08T17:42:11.344Z,99293.34
2023-03-08T17:44:38.750Z,99293.34
2023-03-08T17:47:06.304Z,99296.78
2023-03-08T17:49:34.197Z,99303.59
2023-03-08T17:52:01.596Z,99310.44
2023-03-08T17:54:29.054Z,99307.03
2023-03-08T17:56:56.525Z,99308.72
2023-03-08T17:59:23.976Z,99310.41
2023-03-08T18:01:51.383Z,99317.31
2023-03-08T18:04:19.220Z,99325.88
2023-03-08T18:06:46.726Z,99326.72
2023-03-08T18:09:16.762Z,99313.03
2023-03-08T18:11:44.268Z,99310.44
2023-03-08T18:14:15.185Z,99322.41
2023-03-08T18:16:44.718Z,99310.44
2023-03-08T18:19:12.230Z,99310.41
2023-03-08T18:21:41.270Z,99310.44
2023-03-08T18:24:11.209Z,99298.47
2023-03-08T18:26:38.604Z,99287.34
2023-03-08T18:29:06.092Z,99289.06
2023-03-08T18:31:35.205Z,99288.19
2023-03-08T18:34:03.092Z,99289.91
2023-03-08T18:36:30.914Z,99273.59
2023-03-08T18:38:58.379Z,99270.13
2023-03-08T18:41:28.074Z,99276.19
2023-03-08T18:43:56.117Z,99285.56
2023-03-08T18:46:29.397Z,99277.91
2023-03-08T18:49:05.976Z,99272.72
2023-03-08T18:51:34.243Z,99269.31
2023-03-08T18:54:01.669Z,99270.97
2023-03-08T18:56:29.612Z,99265.88
2023-03-08T18:58:58.685Z,99273.53
2023-03-08T19:01:26.391Z,99266.66
2023-03-08T19:03:54.121Z,99264.09
2023-03-08T19:06:21.558Z,99268.41
2023-03-08T19:08:49.052Z,99254.63
2023-03-08T19:11:18.051Z,99257.25
2023-03-08T19:13:45.548Z,99247.88
2023-03-08T19:16:20.505Z,99246.16
2023-03-08T19:18:48.484Z,99245.31
2023-03-08T19:21:18.874Z,99247.84
2023-03-08T19:23:46.430Z,99243.50
2023-03-08T19:26:36.148Z,99243.50
2023-03-08T19:29:05.071Z,99243.50
2023-03-08T19:31:32.903Z,99254.66
2023-03-08T19:34:01.214Z,99252.94
2023-03-08T19:36:28.677Z,99248.63
2023-03-08T19:38:56.820Z,99251.28
2023-03-08T19:41:24.418Z,99250.31
2023-03-08T19:43:51.852Z,99248.66
2023-03-08T19:46:19.317Z,99258.97
2023-03-08T19:48:47.236Z,99253.81
2023-03-08T19:51:15.573Z,99243.50
2023-03-08T19:53:43.660Z,99243.50
2023-03-08T19:56:18.205Z,99242.72
2023-03-08T19:58:46.601Z,99243.50
2023-03-08T20:01:15.048Z,99250.47
2023-03-08T20:03:43.050Z,99240.22
2023-03-08T20:06:10.901Z,99246.19
2023-03-08T20:08:38.435Z,99241.06
2023-03-08T20:11:06.060Z,99227.34
2023-03-08T20:13:33.573Z,99222.19
2023-03-08T20:16:00.966Z,99221.31
2023-03-08T20:18:29.135Z,99219.66
2023-03-08T20:20:58.433Z,99221.28
2023-03-08T20:23:26.752Z,99211.09
2023-03-08T20:25:54.189Z,99212.78
2023-03-08T20:28:21.704Z,99221.31
2023-03-08T20:30:49.239Z,99226.50
2023-03-08T20:33:18.110Z,99247.03
2023-03-08T20:35:47.221Z,99247.03
2023-03-08T20:38:14.726Z,99243.56
2023-03-08T20:40:42.164Z,99229.94
2023-03-08T20:43:11.000Z,99222.94
2023-03-08T20:45:39.385Z,99229.91
2023-03-08T20:48:06.957Z,99230.78
2023-03-08T20:50:34.505Z,99235.94
2023-03-08T20:53:01.941Z,99235.06
2023-03-08T20:55:29.444Z,99231.63
2023-03-08T20:57:56.871Z,99244.47
2023-03-08T21:00:25.196Z,99241.88
2023-03-08T21:02:52.994Z,99247.84
2023-03-08T21:05:20.508Z,99248.69
2023-03-08T21:07:47.916Z,99248.69
2023-03-08T21:10:15.337Z,99248.66
2023-03-08T21:12:42.797Z,99243.56
2023-03-08T21:15:10.924Z,99245.31
2023-03-08T21:17:39.952Z,99241.03
2023-03-08T21:20:08.195Z,99245.28
2023-03-08T21:22:35.768Z,99247.00
2023-03-08T21:25:03.255Z,99237.63
2023-03-08T21:27:30.727Z,99233.28
2023-03-08T21:29:58.237Z,99228.13
2023-03-08T21:32:27.853Z,99218.66
2023-03-08T21:34:55.477Z,99217.78
2023-03-08T21:37:23.297Z,99210.06
2023-03-08T21:39:50.753Z,99203.28
2023-03-08T21:42:18.205Z,99205.75
2023-03-08T21:44:45.722Z,99191.06
2023-03-08T21:47:13.142Z,99192.09
2023-03-08T21:49:40.682Z,99192.13
2023-03-08T21:52:08.062Z,99200.66
2023-03-08T21:54:35.469Z,99187.84
2023-03-08T21:57:02.933Z,99189.44
2023-03-08T21:59:30.443Z,99189.56
2023-03-08T22:01:58.878Z,99192.81
2023-03-08T22:04:32.921Z,99187.84
2023-03-08T22:07:00.723Z,99190.31
2023-03-08T22:09:29.170Z,99175.75
2023-03-08T22:11:58.818Z,99173.03
2023-03-08T22:14:26.412Z,99184.13
2023-03-08T22:16:56.378Z,99193.69
2023-03-08T22:19:23.875Z,99192.06
2023-03-08T22:21:51.256Z,99195.41
2023-03-08T22:24:18.701Z,99188.63
2023-03-08T22:26:46.142Z,99202.38
2023-03-08T22:29:13.613Z,99214.34
2023-03-08T22:31:41.092Z,99216.09
2023-03-08T22:34:08.596Z,99221.31
2023-03-08T22:36:36.102Z,99221.31
2023-03-08T22:39:03.602Z,99216.22
2023-03-08T22:41:31.327Z,99205.94
2023-03-08T22:43:59.238Z,99212.69
2023-03-08T22:46:27.261Z,99212.69
2023-03-08T22:48:56.468Z,99210.13
2023-03-08T22:51:24.348Z,99211.00
2023-03-08T22:53:51.753Z,99214.47
2023-03-08T22:56:21.386Z,99198.91
2023-03-08T22:58:49.101Z,99205.84
2023-03-08T23:01:17.662Z,99201.59
2023-03-08T23:03:46.136Z,99210.25
2023-03-08T23:06:13.565Z,99209.38
2023-03-08T23:08:41.010Z,99212.81
2023-03-08T23:11:08.480Z,99194.84
2023-03-08T23:13:35.999Z,99193.09
2023-03-08T23:16:03.440Z,99209.38
2023-03-08T23:18:30.924Z,99217.94
2023-03-08T23:21:02.369Z,99207.69
2023-03-08T23:23:29.912Z,99207.69
2023-03-08T23:25:57.382Z,99229.13
2023-03-08T23:28:24.868Z,99218.81
2023-03-08T23:30:52.302Z,99214.56
2023-03-08T23:33:19.696Z,99212.81
2023-03-08T23:35:50.700Z,99197.38
2023-03-08T23:38:18.172Z,99197.41
2023-03-08T23:40:45.645Z,99192.25
2023-03-08T23:43:13.175Z,99178.56
2023-03-08T23:45:41.207Z,99170.88
2023-03-08T23:48:08.652Z,99170.00
2023-03-08T23:50:36.183Z,99159.75
2023-03-08T23:53:03.595Z,99188.84
2023-03-08T23:55:31.019Z,99191.38
2023-03-08T23:57:58.432Z,99178.59
